createdAt,value
2023-12-21T00:02:17.156Z,1003.00
2023-12-21T00:04:50.091Z,1002.99
2023-12-21T00:07:23.385Z,1002.97
2023-12-21T00:09:57.263Z,1002.91
2023-12-21T00:12:30.371Z,1002.86
2023-12-21T00:15:04.035Z,1002.83
2023-12-21T00:17:37.344Z,1002.80
2023-12-21T00:20:10.249Z,1002.78
2023-12-21T00:22:43.612Z,1002.75
2023-12-21T00:25:17.255Z,1002.75
2023-12-21T00:27:50.315Z,1002.74
2023-12-21T00:30:23.164Z,1002.72
2023-12-21T00:32:56.369Z,1002.67
2023-12-21T00:35:29.315Z,1002.62
2023-12-21T00:38:02.344Z,1002.55
2023-12-21T00:40:35.482Z,1002.46
2023-12-21T00:43:09.418Z,1002.39
2023-12-21T00:45:42.474Z,1002.29
2023-12-21T00:48:16.400Z,1002.20
2023-12-21T00:50:49.168Z,1002.10
2023-12-21T00:53:22.199Z,1002.01
2023-12-21T00:55:55.374Z,1001.94
2023-12-21T00:58:28.402Z,1001.87
2023-12-21T01:01:01.458Z,1001.82
2023-12-21T01:03:34.224Z,1001.78
2023-12-21T01:06:07.369Z,1001.74
2023-12-21T01:08:40.430Z,1001.69
2023-12-21T01:11:14.090Z,1001.66
2023-12-21T01:13:47.446Z,1001.66
2023-12-21T01:16:21.160Z,1001.65
2023-12-21T01:18:54.469Z,1001.64
2023-12-21T01:21:27.231Z,1001.62
2023-12-21T01:24:00.585Z,1001.61
2023-12-21T01:26:34.394Z,1001.60
2023-12-21T01:29:07.262Z,1001.55
2023-12-21T01:31:40.599Z,1001.49
2023-12-21T01:34:14.540Z,1001.46
2023-12-21T01:36:47.614Z,1001.41
2023-12-21T01:39:22.700Z,1001.38
2023-12-21T01:41:54.389Z,1001.35
2023-12-21T01:44:29.585Z,1001.31
2023-12-21T01:47:00.480Z,1001.26
2023-12-21T01:49:34.563Z,1001.20
2023-12-21T01:52:07.531Z,1001.14
2023-12-21T01:54:41.413Z,1001.10
2023-12-21T01:57:14.376Z,1001.04
2023-12-21T01:59:47.729Z,1001.00
2023-12-21T02:02:21.378Z,1000.98
2023-12-21T02:04:54.515Z,1000.95
2023-12-21T02:07:28.642Z,1000.91
2023-12-21T02:10:02.441Z,1000.88
2023-12-21T02:12:35.515Z,1000.85
2023-12-21T02:15:09.441Z,1000.80
2023-12-21T02:17:42.531Z,1000.75
2023-12-21T02:20:15.352Z,1000.72
2023-12-21T02:22:48.932Z,1000.69
2023-12-21T02:25:21.482Z,1000.65
2023-12-21T02:27:54.519Z,1000.62
2023-12-21T02:30:27.538Z,1000.58
2023-12-21T02:33:00.654Z,1000.55
2023-12-21T02:35:34.540Z,1000.51
2023-12-21T02:38:07.454Z,1000.44
2023-12-21T02:40:40.696Z,1000.35
2023-12-21T02:43:14.454Z,1000.27
2023-12-21T02:45:47.559Z,1000.22
2023-12-21T02:48:20.469Z,1000.18
2023-12-21T02:50:53.537Z,1000.13
2023-12-21T02:53:26.566Z,1000.08
2023-12-21T02:56:00.561Z,1000.05
2023-12-21T02:58:33.573Z,1000.01
2023-12-21T03:01:06.763Z,999.98
2023-12-21T03:03:40.357Z,999.96
2023-12-21T03:06:13.666Z,999.96
2023-12-21T03:08:47.361Z,999.98
2023-12-21T03:11:20.438Z,999.97
2023-12-21T03:13:53.581Z,999.96
2023-12-21T03:16:26.629Z,999.94
2023-12-21T03:18:59.707Z,999.92
2023-12-21T03:21:33.539Z,999.89
2023-12-21T03:24:06.587Z,999.88
2023-12-21T03:26:39.384Z,999.90
2023-12-21T03:29:12.609Z,999.92
2023-12-21T03:31:45.723Z,999.87
2023-12-21T03:34:18.538Z,999.80
2023-12-21T03:36:51.592Z,999.75
2023-12-21T03:39:24.523Z,999.69
2023-12-21T03:41:57.820Z,999.63
2023-12-21T03:44:31.663Z,999.59
2023-12-21T03:47:05.508Z,999.53
2023-12-21T03:49:38.815Z,999.44
2023-12-21T03:52:12.619Z,999.39
2023-12-21T03:54:45.634Z,999.37
2023-12-21T03:57:18.248Z,999.33
2023-12-21T03:59:51.359Z,999.29
2023-12-21T04:02:24.552Z,999.24
2023-12-21T04:04:57.514Z,999.17
2023-12-21T04:07:30.338Z,999.11
2023-12-21T04:10:03.522Z,999.09
2023-12-21T04:12:36.269Z,999.07
2023-12-21T04:15:09.481Z,999.04
2023-12-21T04:17:42.620Z,999.01
2023-12-21T04:20:15.450Z,998.99
2023-12-21T04:22:48.791Z,998.97
2023-12-21T04:25:21.280Z,998.95
2023-12-21T04:27:54.673Z,998.91
2023-12-21T04:30:27.816Z,998.90
2023-12-21T04:33:01.905Z,998.86
2023-12-21T04:35:34.312Z,998.81
2023-12-21T04:38:08.145Z,998.74
2023-12-21T04:40:41.826Z,998.66
2023-12-21T04:43:15.739Z,998.59
2023-12-21T04:45:48.691Z,998.52
2023-12-21T04:48:21.742Z,998.51
2023-12-21T04:50:54.496Z,998.50
2023-12-21T04:53:27.337Z,998.48
2023-12-21T04:56:00.589Z,998.43
2023-12-21T04:58:33.349Z,998.40
2023-12-21T05:01:06.714Z,998.39
2023-12-21T05:03:39.531Z,998.39
2023-12-21T05:06:12.675Z,998.35
2023-12-21T05:08:45.555Z,998.30
2023-12-21T05:11:18.773Z,998.25
2023-12-21T05:13:51.781Z,998.18
2023-12-21T05:16:25.672Z,998.11
2023-12-21T05:18:58.861Z,998.08
2023-12-21T05:21:31.807Z,998.01
2023-12-21T05:24:05.563Z,997.95
2023-12-21T05:26:38.753Z,997.89
2023-12-21T05:29:11.653Z,997.86
2023-12-21T05:31:44.581Z,997.81
2023-12-21T05:34:17.771Z,997.77
2023-12-21T05:36:50.538Z,997.76
2023-12-21T05:39:23.397Z,997.72
2023-12-21T05:41:56.784Z,997.70
2023-12-21T05:44:29.414Z,997.67
2023-12-21T05:47:02.856Z,997.64
2023-12-21T05:49:36.806Z,997.60
2023-12-21T05:52:09.672Z,997.57
2023-12-21T05:54:42.714Z,997.55
2023-12-21T05:57:15.847Z,997.52
2023-12-21T05:59:49.888Z,997.47
2023-12-21T06:02:23.804Z,997.43
2023-12-21T06:04:56.946Z,997.38
2023-12-21T06:07:29.767Z,997.34
2023-12-21T06:10:02.914Z,997.28
2023-12-21T06:12:35.580Z,997.24
2023-12-21T06:15:08.636Z,997.20
2023-12-21T06:17:41.892Z,997.20
2023-12-21T06:20:15.087Z,997.16
2023-12-21T06:22:48.178Z,997.12
2023-12-21T06:25:20.506Z,997.10
2023-12-21T06:27:53.788Z,997.07
2023-12-21T06:30:26.890Z,997.04
2023-12-21T06:32:59.893Z,997.00
2023-12-21T06:35:32.827Z,996.96
2023-12-21T06:38:05.917Z,996.92
2023-12-21T06:40:39.897Z,996.88
2023-12-21T06:43:12.798Z,996.84
2023-12-21T06:45:45.788Z,996.78
2023-12-21T06:48:18.875Z,996.71
2023-12-21T06:50:51.880Z,996.66
2023-12-21T06:53:24.784Z,996.62
2023-12-21T06:56:13.203Z,996.56
2023-12-21T06:58:30.591Z,996.52
2023-12-21T07:01:04.151Z,996.49
2023-12-21T07:03:37.979Z,996.46
2023-12-21T07:06:11.654Z,996.45
2023-12-21T07:08:44.540Z,996.43
2023-12-21T07:11:17.549Z,996.39
2023-12-21T07:13:50.863Z,996.37
2023-12-21T07:16:23.624Z,996.36
2023-12-21T07:18:56.875Z,996.38
2023-12-21T07:21:29.610Z,996.34
2023-12-21T07:24:02.635Z,996.32
2023-12-21T07:26:38.160Z,996.31
2023-12-21T07:29:09.022Z,996.31
2023-12-21T07:31:42.953Z,996.30
2023-12-21T07:34:16.063Z,996.28
2023-12-21T07:36:48.914Z,996.26
2023-12-21T07:39:22.287Z,996.25
2023-12-21T07:41:54.919Z,996.24
2023-12-21T07:44:27.861Z,996.22
2023-12-21T07:47:01.029Z,996.18
2023-12-21T07:49:34.894Z,996.17
2023-12-21T07:52:08.102Z,996.14
2023-12-21T07:54:41.951Z,996.09
2023-12-21T07:57:15.046Z,996.06
2023-12-21T07:59:48.645Z,996.03
2023-12-21T08:02:22.138Z,996.01
2023-12-21T08:04:56.063Z,995.99
2023-12-21T08:07:28.990Z,995.95
2023-12-21T08:10:02.029Z,995.91
2023-12-21T08:12:34.920Z,995.88
2023-12-21T08:15:08.013Z,995.84
2023-12-21T08:17:41.179Z,995.77
2023-12-21T08:20:14.058Z,995.75
2023-12-21T08:22:47.482Z,995.75
2023-12-21T08:25:20.023Z,995.75
2023-12-21T08:27:52.981Z,995.73
2023-12-21T08:30:26.208Z,995.72
2023-12-21T08:33:00.003Z,995.68
2023-12-21T08:35:36.786Z,995.62
2023-12-21T08:38:10.313Z,995.56
2023-12-21T08:40:44.194Z,995.50
2023-12-21T08:43:18.106Z,995.43
2023-12-21T08:45:50.982Z,995.37
2023-12-21T08:48:24.161Z,995.33
2023-12-21T08:50:57.013Z,995.30
2023-12-21T08:53:30.030Z,995.29
2023-12-21T08:56:03.119Z,995.23
2023-12-21T08:58:36.037Z,995.15
2023-12-21T09:01:09.229Z,995.07
2023-12-21T09:03:43.117Z,995.00
2023-12-21T09:06:16.174Z,994.94
2023-12-21T09:08:51.044Z,994.91
2023-12-21T09:11:23.125Z,994.85
2023-12-21T09:13:55.758Z,994.82
2023-12-21T09:16:29.079Z,994.78
2023-12-21T09:19:02.329Z,994.70
2023-12-21T09:21:35.053Z,994.64
2023-12-21T09:24:08.266Z,994.60
2023-12-21T09:26:42.032Z,994.58
2023-12-21T09:29:15.165Z,994.50
2023-12-21T09:31:48.300Z,994.41
2023-12-21T09:34:22.372Z,994.32
2023-12-21T09:36:56.086Z,994.27
2023-12-21T09:39:28.977Z,994.20
2023-12-21T09:42:04.023Z,994.14
2023-12-21T09:44:34.836Z,994.08
2023-12-21T09:47:08.094Z,994.01
2023-12-21T09:49:41.074Z,993.94
2023-12-21T09:52:13.854Z,993.80
2023-12-21T09:54:47.097Z,993.66
2023-12-21T09:57:20.070Z,993.51
2023-12-21T09:59:52.991Z,993.40
2023-12-21T10:02:26.087Z,993.30
2023-12-21T10:04:59.173Z,993.23
2023-12-21T10:07:31.832Z,993.13
2023-12-21T10:10:05.107Z,993.07
2023-12-21T10:12:38.093Z,993.00
2023-12-21T10:15:11.121Z,992.93
2023-12-21T10:17:44.109Z,992.85
2023-12-21T10:20:17.170Z,992.81
2023-12-21T10:22:50.530Z,992.81
2023-12-21T10:25:23.163Z,992.82
2023-12-21T10:27:56.405Z,992.80
2023-12-21T10:30:30.336Z,992.77
2023-12-21T10:33:04.555Z,992.71
2023-12-21T10:35:37.186Z,992.60
2023-12-21T10:38:10.152Z,992.50
2023-12-21T10:40:43.708Z,992.43
2023-12-21T10:43:17.323Z,992.34
2023-12-21T10:45:50.067Z,992.28
2023-12-21T10:48:23.320Z,992.20
2023-12-21T10:50:56.095Z,992.13
2023-12-21T10:53:29.105Z,992.09
2023-12-21T10:56:02.427Z,992.07
2023-12-21T10:58:34.949Z,992.01
2023-12-21T11:01:08.258Z,991.92
2023-12-21T11:03:40.960Z,991.86
2023-12-21T11:06:14.173Z,991.77
2023-12-21T11:08:47.273Z,991.71
2023-12-21T11:11:20.313Z,991.66
2023-12-21T11:13:53.330Z,991.65
2023-12-21T11:16:26.325Z,991.64
2023-12-21T11:18:59.637Z,991.61
2023-12-21T11:21:32.401Z,991.59
2023-12-21T11:24:06.207Z,991.55
2023-12-21T11:26:39.246Z,991.48
2023-12-21T11:29:12.346Z,991.42
2023-12-21T11:31:45.423Z,991.39
2023-12-21T11:34:18.406Z,991.35
2023-12-21T11:36:52.130Z,991.29
2023-12-21T11:39:25.377Z,991.23
2023-12-21T11:41:58.646Z,991.17
2023-12-21T11:44:32.369Z,991.10
2023-12-21T11:47:05.539Z,991.04
2023-12-21T11:49:39.298Z,990.97
2023-12-21T11:52:12.269Z,990.88
2023-12-21T11:54:45.426Z,990.83
2023-12-21T11:57:19.348Z,990.75
2023-12-21T11:59:52.245Z,990.68
2023-12-21T12:02:25.460Z,990.62
2023-12-21T12:04:59.221Z,990.56
2023-12-21T12:07:32.381Z,990.51
2023-12-21T12:10:05.185Z,990.46
2023-12-21T12:12:38.713Z,990.41
2023-12-21T12:15:12.224Z,990.35
2023-12-21T12:17:46.259Z,990.32
2023-12-21T12:20:18.085Z,990.29
2023-12-21T12:22:51.230Z,990.24
2023-12-21T12:25:24.236Z,990.23
2023-12-21T12:27:57.270Z,990.18
2023-12-21T12:30:30.325Z,990.17
2023-12-21T12:33:03.310Z,990.16
2023-12-21T12:35:36.026Z,990.12
2023-12-21T12:38:09.278Z,990.09
2023-12-21T12:40:42.383Z,990.03
2023-12-21T12:43:15.395Z,990.00
2023-12-21T12:45:48.222Z,989.97
2023-12-21T12:48:21.202Z,989.95
2023-12-21T12:50:54.317Z,989.91
2023-12-21T12:53:27.281Z,989.87
2023-12-21T12:56:00.435Z,989.84
2023-12-21T12:58:35.285Z,989.81
2023-12-21T13:01:06.339Z,989.78
2023-12-21T13:03:39.117Z,989.72
2023-12-21T13:06:18.342Z,989.70
2023-12-21T13:08:45.187Z,989.66
2023-12-21T13:11:18.313Z,989.63
2023-12-21T13:13:51.611Z,989.62
2023-12-21T13:16:24.222Z,989.59
2023-12-21T13:18:57.353Z,989.56
2023-12-21T13:21:30.413Z,989.52
2023-12-21T13:24:03.600Z,989.49
2023-12-21T13:26:37.217Z,989.47
2023-12-21T13:29:10.439Z,989.42
2023-12-21T13:31:43.235Z,989.40
2023-12-21T13:34:16.176Z,989.39
2023-12-21T13:36:49.368Z,989.35
2023-12-21T13:39:22.205Z,989.31
2023-12-21T13:41:55.305Z,989.28
2023-12-21T13:44:32.429Z,989.27
2023-12-21T13:47:01.422Z,989.23
2023-12-21T13:49:34.356Z,989.22
2023-12-21T13:52:07.366Z,989.20
2023-12-21T13:54:40.430Z,989.17
2023-12-21T13:57:15.308Z,989.15
2023-12-21T13:59:47.447Z,989.12
2023-12-21T14:02:20.480Z,989.10
2023-12-21T14:04:53.724Z,989.11
2023-12-21T14:07:26.564Z,989.07
2023-12-21T14:09:59.768Z,989.03
2023-12-21T14:12:34.808Z,989.00
2023-12-21T14:15:06.402Z,988.97
2023-12-21T14:17:40.862Z,988.96
2023-12-21T14:20:12.523Z,988.94
2023-12-21T14:22:45.613Z,988.93
2023-12-21T14:25:18.589Z,988.89
2023-12-21T14:27:51.779Z,988.82
2023-12-21T14:30:25.542Z,988.78
2023-12-21T14:32:58.892Z,988.71
2023-12-21T14:35:32.654Z,988.66
2023-12-21T14:38:06.642Z,988.63
2023-12-21T14:40:39.286Z,988.62
2023-12-21T14:43:12.670Z,988.59
2023-12-21T14:45:45.281Z,988.55
2023-12-21T14:48:20.316Z,988.52
2023-12-21T14:50:52.425Z,988.51
2023-12-21T14:53:25.832Z,988.50
2023-12-21T14:55:59.696Z,988.50
2023-12-21T14:58:32.709Z,988.54
2023-12-21T15:01:05.748Z,988.53
2023-12-21T15:03:38.726Z,988.55
2023-12-21T15:06:12.468Z,988.55
2023-12-21T15:08:45.567Z,988.51
2023-12-21T15:11:18.774Z,988.50
2023-12-21T15:13:52.641Z,988.52
2023-12-21T15:16:25.624Z,988.53
2023-12-21T15:18:58.486Z,988.52
2023-12-21T15:21:31.301Z,988.50
2023-12-21T15:24:04.521Z,988.47
2023-12-21T15:26:37.480Z,988.47
2023-12-21T15:29:10.843Z,988.44
2023-12-21T15:31:44.688Z,988.38
2023-12-21T15:34:17.800Z,988.34
2023-12-21T15:36:50.933Z,988.33
2023-12-21T15:39:24.422Z,988.32
2023-12-21T15:41:57.520Z,988.30
2023-12-21T15:44:30.350Z,988.29
2023-12-21T15:47:03.527Z,988.28
2023-12-21T15:49:36.972Z,988.28
2023-12-21T15:52:10.815Z,988.28
2023-12-21T15:54:44.369Z,988.28
2023-12-21T15:57:17.769Z,988.24
2023-12-21T15:59:51.644Z,988.23
2023-12-21T16:02:24.627Z,988.20
2023-12-21T16:04:57.820Z,988.16
2023-12-21T16:07:30.389Z,988.11
2023-12-21T16:10:03.703Z,988.06
2023-12-21T16:12:36.398Z,988.01
2023-12-21T16:15:09.853Z,987.99
2023-12-21T16:17:43.707Z,987.99
2023-12-21T16:20:16.862Z,987.98
2023-12-21T16:22:51.142Z,987.97
2023-12-21T16:25:23.797Z,988.02
2023-12-21T16:27:56.569Z,988.07
2023-12-21T16:30:29.890Z,988.12
2023-12-21T16:33:03.830Z,988.15
2023-12-21T16:35:36.654Z,988.19
2023-12-21T16:38:09.421Z,988.20
2023-12-21T16:40:42.837Z,988.22
2023-12-21T16:43:15.972Z,988.23
2023-12-21T16:45:48.524Z,988.22
2023-12-21T16:48:21.767Z,988.21
2023-12-21T16:50:54.890Z,988.22
2023-12-21T16:53:28.934Z,988.23
2023-12-21T16:56:02.657Z,988.26
2023-12-21T16:58:36.067Z,988.32
2023-12-21T17:01:09.985Z,988.36
2023-12-21T17:03:42.833Z,988.37
2023-12-21T17:06:16.021Z,988.40
2023-12-21T17:08:49.483Z,988.43
2023-12-21T17:11:24.951Z,988.47
2023-12-21T17:13:55.942Z,988.48
2023-12-21T17:16:28.722Z,988.51
2023-12-21T17:19:01.890Z,988.52
2023-12-21T17:21:34.484Z,988.53
2023-12-21T17:24:07.763Z,988.54
2023-12-21T17:26:40.543Z,988.56
2023-12-21T17:29:13.683Z,988.58
2023-12-21T17:31:46.524Z,988.64
2023-12-21T17:34:20.591Z,988.66
2023-12-21T17:36:52.539Z,988.70
2023-12-21T17:39:25.840Z,988.75
2023-12-21T17:41:58.776Z,988.79
2023-12-21T17:44:31.686Z,988.84
2023-12-21T17:47:04.794Z,988.86
2023-12-21T17:49:37.722Z,988.89
2023-12-21T17:52:10.878Z,988.90
2023-12-21T17:54:43.829Z,988.91
2023-12-21T17:57:16.689Z,988.92
2023-12-21T17:59:49.597Z,988.89
2023-12-21T18:02:22.772Z,988.85
2023-12-21T18:04:56.338Z,988.80
2023-12-21T18:07:29.917Z,988.76
2023-12-21T18:10:02.870Z,988.71
2023-12-21T18:12:35.588Z,988.70
2023-12-21T18:15:08.761Z,988.68
2023-12-21T18:17:44.013Z,988.67
2023-12-21T18:20:14.866Z,988.68
2023-12-21T18:22:47.696Z,988.66
2023-12-21T18:25:21.061Z,988.65
2023-12-21T18:27:53.609Z,988.66
2023-12-21T18:30:27.147Z,988.67
2023-12-21T18:33:01.094Z,988.73
2023-12-21T18:35:35.050Z,988.74
2023-12-21T18:38:08.013Z,988.73
2023-12-21T18:40:43.270Z,988.73
2023-12-21T18:43:15.024Z,988.76
2023-12-21T18:45:47.944Z,988.76
2023-12-21T18:48:21.218Z,988.75
2023-12-21T18:50:54.919Z,988.74
2023-12-21T18:53:29.955Z,988.74
2023-12-21T18:56:02.075Z,988.75
2023-12-21T18:58:36.078Z,988.76
2023-12-21T19:01:10.065Z,988.78
2023-12-21T19:03:42.686Z,988.79
2023-12-21T19:06:16.033Z,988.79
2023-12-21T19:08:48.645Z,988.80
2023-12-21T19:11:21.869Z,988.82
2023-12-21T19:13:54.811Z,988.86
2023-12-21T19:16:27.903Z,988.91
2023-12-21T19:19:00.724Z,988.96
2023-12-21T19:21:33.936Z,989.01
2023-12-21T19:24:06.999Z,989.08
2023-12-21T19:26:39.666Z,989.08
2023-12-21T19:29:12.900Z,989.10
2023-12-21T19:31:45.729Z,989.15
2023-12-21T19:34:19.051Z,989.19
2023-12-21T19:36:51.797Z,989.24
2023-12-21T19:39:25.207Z,989.28
2023-12-21T19:41:58.776Z,989.27
2023-12-21T19:44:33.362Z,989.27
2023-12-21T19:47:04.888Z,989.31
2023-12-21T19:49:38.095Z,989.38
2023-12-21T19:52:10.912Z,989.45
2023-12-21T19:54:43.725Z,989.50
2023-12-21T19:57:17.156Z,989.54
2023-12-21T19:59:49.712Z,989.57
2023-12-21T20:02:23.113Z,989.61
2023-12-21T20:04:55.869Z,989.66
2023-12-21T20:07:29.023Z,989.73
2023-12-21T20:10:01.773Z,989.81
2023-12-21T20:12:35.015Z,989.90
2023-12-21T20:15:07.911Z,989.96
2023-12-21T20:17:40.858Z,990.02
2023-12-21T20:20:13.977Z,990.08
2023-12-21T20:22:46.820Z,990.14
2023-12-21T20:25:19.924Z,990.08
2023-12-21T20:27:53.201Z,990.10
2023-12-21T20:30:26.061Z,990.14
2023-12-21T20:32:59.175Z,990.20
2023-12-21T20:35:31.984Z,990.31
2023-12-21T20:38:05.171Z,990.42
2023-12-21T20:40:38.189Z,990.53
2023-12-21T20:43:12.945Z,990.64
2023-12-21T20:45:46.018Z,990.71
2023-12-21T20:48:19.215Z,990.77
2023-12-21T20:50:52.799Z,990.83
2023-12-21T20:53:26.047Z,990.85
2023-12-21T20:55:59.061Z,990.88
2023-12-21T20:58:32.339Z,990.87
2023-12-21T21:01:06.262Z,990.90
2023-12-21T21:03:39.121Z,990.99
2023-12-21T21:06:14.687Z,991.12
2023-12-21T21:08:44.864Z,991.24
2023-12-21T21:11:18.237Z,991.33
2023-12-21T21:13:50.882Z,991.38
2023-12-21T21:16:24.287Z,991.42
2023-12-21T21:18:57.335Z,991.49
2023-12-21T21:21:31.086Z,991.55
2023-12-21T21:24:04.297Z,991.61
2023-12-21T21:26:37.261Z,991.73
2023-12-21T21:29:10.233Z,991.82
2023-12-21T21:31:43.247Z,991.96
2023-12-21T21:34:16.209Z,992.02
2023-12-21T21:36:48.887Z,992.04
2023-12-21T21:39:22.169Z,992.02
2023-12-21T21:41:55.316Z,991.97
2023-12-21T21:44:29.329Z,992.03
2023-12-21T21:47:03.088Z,992.17
2023-12-21T21:49:36.245Z,992.21
2023-12-21T21:52:09.235Z,992.24
2023-12-21T21:54:42.177Z,992.24
2023-12-21T21:57:15.277Z,992.27
2023-12-21T21:59:48.180Z,992.29
2023-12-21T22:02:21.181Z,992.33
2023-12-21T22:04:54.089Z,992.32
2023-12-21T22:07:27.367Z,992.37
2023-12-21T22:10:00.942Z,992.40
2023-12-21T22:12:34.167Z,992.44
2023-12-21T22:15:07.188Z,992.44
2023-12-21T22:17:40.181Z,992.42
2023-12-21T22:20:13.234Z,992.43
2023-12-21T22:22:47.362Z,992.43
2023-12-21T22:25:20.243Z,992.51
2023-12-21T22:27:52.994Z,992.52
2023-12-21T22:30:26.346Z,992.66
2023-12-21T22:32:59.228Z,992.76
2023-12-21T22:35:32.406Z,992.89
2023-12-21T22:38:06.186Z,992.95
2023-12-21T22:40:39.261Z,993.07
2023-12-21T22:43:16.975Z,993.09
2023-12-21T22:45:46.319Z,993.09
2023-12-21T22:48:19.346Z,993.13
2023-12-21T22:50:52.284Z,993.22
2023-12-21T22:53:25.231Z,993.33
2023-12-21T22:55:58.307Z,993.43
2023-12-21T22:58:31.183Z,993.50
2023-12-21T23:01:04.465Z,993.54
2023-12-21T23:03:38.235Z,993.58
2023-12-21T23:06:11.209Z,993.62
2023-12-21T23:08:44.335Z,993.61
2023-12-21T23:11:17.228Z,993.64
2023-12-21T23:13:50.177Z,993.61
2023-12-21T23:16:23.206Z,993.56
2023-12-21T23:18:56.107Z,993.50
2023-12-21T23:21:29.167Z,993.50
2023-12-21T23:24:02.357Z,993.48
2023-12-21T23:26:35.399Z,993.47
2023-12-21T23:29:08.377Z,993.46
2023-12-21T23:31:41.338Z,993.42
2023-12-21T23:34:14.286Z,993.39
2023-12-21T23:36:47.468Z,993.37
2023-12-21T23:39:21.486Z,993.33
2023-12-21T23:41:55.572Z,993.31
2023-12-21T23:44:29.290Z,993.30
2023-12-21T23:47:02.067Z,993.31
2023-12-21T23:49:35.266Z,993.35
2023-12-21T23:52:08.472Z,993.39
2023-12-21T23:54:41.514Z,993.44
2023-12-21T23:57:15.261Z,993.44
2023-12-21T23:59:48.352Z,993.44
